sensor_id;sensor_type;location;lat;lon;timestamp;P1;durP1;ratioP1;P2;durP2;ratioP2
42006;SDS011;27696;42.704;23.304;2022-07-23T00:01:59;13.75;;;7.55;;
42006;SDS011;27696;42.704;23.304;2022-07-23T00:04:25;11.98;;;6.50;;
42006;SDS011;27696;42.704;23.304;2022-07-23T00:06:50;17.40;;;8.23;;
42006;SDS011;27696;42.704;23.304;2022-07-23T00:09:16;14.98;;;8.50;;
42006;SDS011;27696;42.704;23.304;2022-07-23T00:11:41;14.23;;;9.25;;
42006;SDS011;27696;42.704;23.304;2022-07-23T00:14:07;14.50;;;9.68;;
42006;SDS011;27696;42.704;23.304;2022-07-23T00:16:32;16.88;;;10.95;;
42006;SDS011;27696;42.704;23.304;2022-07-23T00:18:58;20.25;;;12.20;;
42006;SDS011;27696;42.704;23.304;2022-07-23T00:21:26;15.48;;;11.88;;
42006;SDS011;27696;42.704;23.304;2022-07-23T00:23:52;19.25;;;12.32;;
42006;SDS011;27696;42.704;23.304;2022-07-23T00:26:17;18.48;;;11.95;;
42006;SDS011;27696;42.704;23.304;2022-07-23T00:28:42;20.08;;;11.35;;
42006;SDS011;27696;42.704;23.304;2022-07-23T00:31:08;17.48;;;10.73;;
42006;SDS011;27696;42.704;23.304;2022-07-23T00:33:33;16.40;;;11.02;;
42006;SDS011;27696;42.704;23.304;2022-07-23T00:35:59;20.45;;;10.80;;
42006;SDS011;27696;42.704;23.304;2022-07-23T00:38:24;13.70;;;9.82;;
42006;SDS011;27696;42.704;23.304;2022-07-23T00:40:49;14.43;;;9.10;;
42006;SDS011;27696;42.704;23.304;2022-07-23T00:43:15;15.18;;;8.57;;
42006;SDS011;27696;42.704;23.304;2022-07-23T00:45:40;12.15;;;7.75;;
42006;SDS011;27696;42.704;23.304;2022-07-23T00:48:06;13.65;;;8.10;;
42006;SDS011;27696;42.704;23.304;2022-07-23T00:50:31;15.38;;;8.10;;
42006;SDS011;27696;42.704;23.304;2022-07-23T00:52:57;10.13;;;7.97;;
42006;SDS011;27696;42.704;23.304;2022-07-23T00:55:22;10.73;;;7.13;;
42006;SDS011;27696;42.704;23.304;2022-07-23T00:57:48;15.38;;;7.43;;
42006;SDS011;27696;42.704;23.304;2022-07-23T01:00:16;10.23;;;7.30;;
42006;SDS011;27696;42.704;23.304;2022-07-23T01:02:42;15.02;;;7.60;;
42006;SDS011;27696;42.704;23.304;2022-07-23T01:05:08;11.85;;;6.97;;
42006;SDS011;27696;42.704;23.304;2022-07-23T01:07:34;11.63;;;6.85;;
42006;SDS011;27696;42.704;23.304;2022-07-23T01:10:01;11.80;;;7.00;;
42006;SDS011;27696;42.704;23.304;2022-07-23T01:12:27;13.20;;;7.10;;
42006;SDS011;27696;42.704;23.304;2022-07-23T01:14:57;12.80;;;7.90;;
42006;SDS011;27696;42.704;23.304;2022-07-23T01:17:24;11.70;;;7.30;;
42006;SDS011;27696;42.704;23.304;2022-07-23T01:19:50;9.55;;;7.25;;
42006;SDS011;27696;42.704;23.304;2022-07-23T01:22:16;9.73;;;6.72;;
42006;SDS011;27696;42.704;23.304;2022-07-23T01:24:43;16.08;;;7.70;;
42006;SDS011;27696;42.704;23.304;2022-07-23T01:27:09;10.32;;;7.30;;
42006;SDS011;27696;42.704;23.304;2022-07-23T01:29:34;12.30;;;7.10;;
42006;SDS011;27696;42.704;23.304;2022-07-23T01:32:00;16.33;;;7.85;;
42006;SDS011;27696;42.704;23.304;2022-07-23T01:34:25;14.40;;;7.05;;
42006;SDS011;27696;42.704;23.304;2022-07-23T01:36:50;13.48;;;7.32;;
42006;SDS011;27696;42.704;23.304;2022-07-23T01:39:16;11.00;;;7.75;;
42006;SDS011;27696;42.704;23.304;2022-07-23T01:41:41;10.90;;;7.90;;
42006;SDS011;27696;42.704;23.304;2022-07-23T01:44:07;11.80;;;7.10;;
42006;SDS011;27696;42.704;23.304;2022-07-23T01:46:32;10.85;;;7.45;;
42006;SDS011;27696;42.704;23.304;2022-07-23T01:48:58;12.43;;;7.43;;
42006;SDS011;27696;42.704;23.304;2022-07-23T01:51:23;12.38;;;7.40;;
42006;SDS011;27696;42.704;23.304;2022-07-23T01:53:49;9.82;;;7.30;;
42006;SDS011;27696;42.704;23.304;2022-07-23T01:56:14;10.57;;;6.93;;
42006;SDS011;27696;42.704;23.304;2022-07-23T01:58:40;9.77;;;6.45;;
42006;SDS011;27696;42.704;23.304;2022-07-23T02:01:05;11.80;;;6.85;;
42006;SDS011;27696;42.704;23.304;2022-07-23T02:03:31;13.38;;;7.15;;
42006;SDS011;27696;42.704;23.304;2022-07-23T02:05:57;10.48;;;6.78;;
42006;SDS011;27696;42.704;23.304;2022-07-23T02:08:22;10.20;;;7.13;;
42006;SDS011;27696;42.704;23.304;2022-07-23T02:10:48;9.13;;;7.47;;
42006;SDS011;27696;42.704;23.304;2022-07-23T02:13:16;11.65;;;6.65;;
42006;SDS011;27696;42.704;23.304;2022-07-23T02:15:41;11.25;;;7.30;;
42006;SDS011;27696;42.704;23.304;2022-07-23T02:18:07;8.00;;;6.32;;
42006;SDS011;27696;42.704;23.304;2022-07-23T02:20:33;9.30;;;7.13;;
42006;SDS011;27696;42.704;23.304;2022-07-23T02:22:58;12.57;;;7.60;;
42006;SDS011;27696;42.704;23.304;2022-07-23T02:25:24;10.32;;;7.13;;
42006;SDS011;27696;42.704;23.304;2022-07-23T02:27:49;12.32;;;7.78;;
42006;SDS011;27696;42.704;23.304;2022-07-23T02:30:15;13.68;;;7.68;;
42006;SDS011;27696;42.704;23.304;2022-07-23T02:32:40;11.10;;;7.57;;
42006;SDS011;27696;42.704;23.304;2022-07-23T02:35:06;12.68;;;7.53;;
42006;SDS011;27696;42.704;23.304;2022-07-23T02:37:32;14.90;;;7.25;;
42006;SDS011;27696;42.704;23.304;2022-07-23T02:39:57;9.85;;;7.10;;
42006;SDS011;27696;42.704;23.304;2022-07-23T02:42:23;16.50;;;7.72;;
42006;SDS011;27696;42.704;23.304;2022-07-23T02:44:49;12.52;;;7.68;;
42006;SDS011;27696;42.704;23.304;2022-07-23T02:47:15;12.98;;;7.82;;
42006;SDS011;27696;42.704;23.304;2022-07-23T02:49:40;13.88;;;7.75;;
42006;SDS011;27696;42.704;23.304;2022-07-23T02:52:06;15.27;;;7.30;;
42006;SDS011;27696;42.704;23.304;2022-07-23T02:54:31;13.15;;;7.85;;
42006;SDS011;27696;42.704;23.304;2022-07-23T02:56:57;9.15;;;7.85;;
42006;SDS011;27696;42.704;23.304;2022-07-23T02:59:22;10.45;;;8.20;;
42006;SDS011;27696;42.704;23.304;2022-07-23T03:01:48;11.05;;;7.30;;
42006;SDS011;27696;42.704;23.304;2022-07-23T03:04:13;15.05;;;7.97;;
42006;SDS011;27696;42.704;23.304;2022-07-23T03:06:39;14.80;;;8.02;;
42006;SDS011;27696;42.704;23.304;2022-07-23T03:09:04;15.23;;;8.00;;
42006;SDS011;27696;42.704;23.304;2022-07-23T03:11:30;11.13;;;7.95;;
42006;SDS011;27696;42.704;23.304;2022-07-23T03:13:56;11.85;;;7.60;;
42006;SDS011;27696;42.704;23.304;2022-07-23T03:16:21;9.75;;;7.55;;
42006;SDS011;27696;42.704;23.304;2022-07-23T03:18:47;15.25;;;8.57;;
42006;SDS011;27696;42.704;23.304;2022-07-23T03:21:12;13.68;;;8.60;;
42006;SDS011;27696;42.704;23.304;2022-07-23T03:23:38;12.15;;;7.90;;
42006;SDS011;27696;42.704;23.304;2022-07-23T03:26:03;12.32;;;8.25;;
42006;SDS011;27696;42.704;23.304;2022-07-23T03:28:29;10.68;;;8.68;;
42006;SDS011;27696;42.704;23.304;2022-07-23T03:30:56;13.38;;;8.38;;
42006;SDS011;27696;42.704;23.304;2022-07-23T03:33:21;12.38;;;8.68;;
42006;SDS011;27696;42.704;23.304;2022-07-23T03:35:47;13.60;;;9.10;;
42006;SDS011;27696;42.704;23.304;2022-07-23T03:38:13;13.85;;;8.80;;
42006;SDS011;27696;42.704;23.304;2022-07-23T03:40:39;13.70;;;9.00;;
42006;SDS011;27696;42.704;23.304;2022-07-23T03:43:04;15.32;;;8.52;;
42006;SDS011;27696;42.704;23.304;2022-07-23T03:45:31;14.50;;;8.85;;
42006;SDS011;27696;42.704;23.304;2022-07-23T03:47:57;12.68;;;9.32;;
42006;SDS011;27696;42.704;23.304;2022-07-23T03:50:23;11.75;;;8.52;;
42006;SDS011;27696;42.704;23.304;2022-07-23T03:52:48;17.90;;;9.25;;
42006;SDS011;27696;42.704;23.304;2022-07-23T03:55:14;14.98;;;9.15;;
42006;SDS011;27696;42.704;23.304;2022-07-23T03:57:39;16.65;;;9.63;;
42006;SDS011;27696;42.704;23.304;2022-07-23T04:00:06;17.13;;;9.93;;
42006;SDS011;27696;42.704;23.304;2022-07-23T04:02:34;12.00;;;10.07;;
42006;SDS011;27696;42.704;23.304;2022-07-23T04:05:00;16.95;;;9.98;;
42006;SDS011;27696;42.704;23.304;2022-07-23T04:07:25;19.25;;;13.55;;
42006;SDS011;27696;42.704;23.304;2022-07-23T04:09:51;11.57;;;8.85;;
42006;SDS011;27696;42.704;23.304;2022-07-23T04:12:17;13.75;;;8.98;;
42006;SDS011;27696;42.704;23.304;2022-07-23T04:14:42;12.85;;;8.45;;
42006;SDS011;27696;42.704;23.304;2022-07-23T04:17:08;14.40;;;8.50;;
42006;SDS011;27696;42.704;23.304;2022-07-23T04:19:33;19.30;;;8.93;;
42006;SDS011;27696;42.704;23.304;2022-07-23T04:22:04;18.70;;;8.48;;
42006;SDS011;27696;42.704;23.304;2022-07-23T04:24:30;12.45;;;8.45;;
42006;SDS011;27696;42.704;23.304;2022-07-23T04:26:56;9.80;;;8.20;;
42006;SDS011;27696;42.704;23.304;2022-07-23T04:29:21;10.32;;;8.75;;
42006;SDS011;27696;42.704;23.304;2022-07-23T04:31:46;17.95;;;8.55;;
42006;SDS011;27696;42.704;23.304;2022-07-23T04:34:12;15.45;;;8.35;;
42006;SDS011;27696;42.704;23.304;2022-07-23T04:36:37;20.40;;;8.93;;
42006;SDS011;27696;42.704;23.304;2022-07-23T04:39:03;18.67;;;9.18;;
42006;SDS011;27696;42.704;23.304;2022-07-23T04:41:28;14.45;;;9.07;;
42006;SDS011;27696;42.704;23.304;2022-07-23T04:43:54;14.70;;;9.05;;
42006;SDS011;27696;42.704;23.304;2022-07-23T04:46:19;15.50;;;8.73;;
42006;SDS011;27696;42.704;23.304;2022-07-23T04:48:44;14.23;;;9.00;;
42006;SDS011;27696;42.704;23.304;2022-07-23T04:51:10;18.65;;;10.40;;
42006;SDS011;27696;42.704;23.304;2022-07-23T04:53:36;16.60;;;9.75;;
42006;SDS011;27696;42.704;23.304;2022-07-23T04:56:03;20.70;;;10.65;;
42006;SDS011;27696;42.704;23.304;2022-07-23T04:58:29;17.08;;;9.05;;
42006;SDS011;27696;42.704;23.304;2022-07-23T05:00:56;20.90;;;9.60;;
42006;SDS011;27696;42.704;23.304;2022-07-23T05:03:23;12.68;;;9.75;;
42006;SDS011;27696;42.704;23.304;2022-07-23T05:05:48;12.20;;;9.32;;
42006;SDS011;27696;42.704;23.304;2022-07-23T05:08:14;13.55;;;9.88;;
42006;SDS011;27696;42.704;23.304;2022-07-23T05:10:39;11.13;;;8.82;;
42006;SDS011;27696;42.704;23.304;2022-07-23T05:13:05;13.93;;;9.68;;
42006;SDS011;27696;42.704;23.304;2022-07-23T05:15:30;14.82;;;8.80;;
42006;SDS011;27696;42.704;23.304;2022-07-23T05:17:56;13.25;;;8.73;;
42006;SDS011;27696;42.704;23.304;2022-07-23T05:20:21;17.48;;;9.15;;
42006;SDS011;27696;42.704;23.304;2022-07-23T05:22:47;13.02;;;10.10;;
42006;SDS011;27696;42.704;23.304;2022-07-23T05:25:13;19.20;;;9.60;;
42006;SDS011;27696;42.704;23.304;2022-07-23T05:27:38;10.75;;;8.15;;
42006;SDS011;27696;42.704;23.304;2022-07-23T05:30:04;16.77;;;8.70;;
42006;SDS011;27696;42.704;23.304;2022-07-23T05:32:31;15.27;;;9.35;;
42006;SDS011;27696;42.704;23.304;2022-07-23T05:34:57;15.85;;;8.77;;
42006;SDS011;27696;42.704;23.304;2022-07-23T05:37:22;16.58;;;8.77;;
42006;SDS011;27696;42.704;23.304;2022-07-23T05:39:48;14.20;;;9.10;;
42006;SDS011;27696;42.704;23.304;2022-07-23T05:42:13;11.60;;;8.23;;
42006;SDS011;27696;42.704;23.304;2022-07-23T05:44:39;13.38;;;8.00;;
42006;SDS011;27696;42.704;23.304;2022-07-23T05:47:04;12.60;;;9.13;;
42006;SDS011;27696;42.704;23.304;2022-07-23T05:49:30;15.27;;;9.05;;
42006;SDS011;27696;42.704;23.304;2022-07-23T05:51:55;11.93;;;9.00;;
42006;SDS011;27696;42.704;23.304;2022-07-23T05:54:21;12.65;;;8.85;;
42006;SDS011;27696;42.704;23.304;2022-07-23T05:56:46;15.13;;;8.80;;
42006;SDS011;27696;42.704;23.304;2022-07-23T05:59:12;10.75;;;8.23;;
42006;SDS011;27696;42.704;23.304;2022-07-23T06:01:39;20.80;;;9.45;;
42006;SDS011;27696;42.704;23.304;2022-07-23T06:04:05;16.63;;;8.52;;
42006;SDS011;27696;42.704;23.304;2022-07-23T06:06:31;26.15;;;10.15;;
42006;SDS011;27696;42.704;23.304;2022-07-23T06:08:56;18.73;;;8.82;;
42006;SDS011;27696;42.704;23.304;2022-07-23T06:11:21;19.58;;;8.90;;
42006;SDS011;27696;42.704;23.304;2022-07-23T06:13:47;15.98;;;9.05;;
42006;SDS011;27696;42.704;23.304;2022-07-23T06:16:12;17.55;;;9.15;;
42006;SDS011;27696;42.704;23.304;2022-07-23T06:18:38;14.15;;;9.05;;
42006;SDS011;27696;42.704;23.304;2022-07-23T06:21:03;23.35;;;9.02;;
42006;SDS011;27696;42.704;23.304;2022-07-23T06:23:29;15.10;;;9.15;;
42006;SDS011;27696;42.704;23.304;2022-07-23T06:25:54;16.40;;;9.10;;
42006;SDS011;27696;42.704;23.304;2022-07-23T06:28:20;14.38;;;9.25;;
42006;SDS011;27696;42.704;23.304;2022-07-23T06:30:45;14.68;;;9.65;;
42006;SDS011;27696;42.704;23.304;2022-07-23T06:33:11;15.02;;;9.93;;
42006;SDS011;27696;42.704;23.304;2022-07-23T06:35:37;15.95;;;9.63;;
42006;SDS011;27696;42.704;23.304;2022-07-23T06:38:02;20.05;;;8.63;;
42006;SDS011;27696;42.704;23.304;2022-07-23T06:40:28;18.42;;;9.73;;
42006;SDS011;27696;42.704;23.304;2022-07-23T06:42:53;14.82;;;9.13;;
42006;SDS011;27696;42.704;23.304;2022-07-23T06:45:19;14.43;;;10.15;;
42006;SDS011;27696;42.704;23.304;2022-07-23T06:47:44;20.23;;;10.30;;
42006;SDS011;27696;42.704;23.304;2022-07-23T06:50:10;21.10;;;11.88;;
42006;SDS011;27696;42.704;23.304;2022-07-23T06:52:35;18.55;;;9.60;;
42006;SDS011;27696;42.704;23.304;2022-07-23T06:55:01;32.58;;;11.90;;
42006;SDS011;27696;42.704;23.304;2022-07-23T06:57:26;17.65;;;10.10;;
42006;SDS011;27696;42.704;23.304;2022-07-23T06:59:52;17.83;;;10.07;;
42006;SDS011;27696;42.704;23.304;2022-07-23T07:02:18;16.48;;;10.15;;
42006;SDS011;27696;42.704;23.304;2022-07-23T07:04:43;15.40;;;10.15;;
42006;SDS011;27696;42.704;23.304;2022-07-23T07:07:09;18.70;;;10.68;;
42006;SDS011;27696;42.704;23.304;2022-07-23T07:09:34;13.98;;;9.25;;
42006;SDS011;27696;42.704;23.304;2022-07-23T07:12:00;13.93;;;9.57;;
42006;SDS011;27696;42.704;23.304;2022-07-23T07:14:25;17.33;;;10.05;;
42006;SDS011;27696;42.704;23.304;2022-07-23T07:16:51;16.17;;;9.43;;
42006;SDS011;27696;42.704;23.304;2022-07-23T07:19:16;17.48;;;9.57;;
42006;SDS011;27696;42.704;23.304;2022-07-23T07:21:41;14.50;;;8.98;;
42006;SDS011;27696;42.704;23.304;2022-07-23T07:24:07;12.27;;;7.82;;
42006;SDS011;27696;42.704;23.304;2022-07-23T07:26:33;15.82;;;10.00;;
42006;SDS011;27696;42.704;23.304;2022-07-23T07:28:58;12.32;;;7.65;;
42006;SDS011;27696;42.704;23.304;2022-07-23T07:31:23;15.02;;;8.65;;
42006;SDS011;27696;42.704;23.304;2022-07-23T07:33:49;16.20;;;7.60;;
42006;SDS011;27696;42.704;23.304;2022-07-23T07:36:16;10.25;;;7.50;;
42006;SDS011;27696;42.704;23.304;2022-07-23T07:38:41;10.88;;;7.25;;
42006;SDS011;27696;42.704;23.304;2022-07-23T07:41:07;12.13;;;8.25;;
42006;SDS011;27696;42.704;23.304;2022-07-23T07:43:35;11.45;;;7.30;;
42006;SDS011;27696;42.704;23.304;2022-07-23T07:46:00;11.57;;;7.80;;
42006;SDS011;27696;42.704;23.304;2022-07-23T07:48:26;13.30;;;7.45;;
42006;SDS011;27696;42.704;23.304;2022-07-23T07:50:51;11.35;;;7.18;;
42006;SDS011;27696;42.704;23.304;2022-07-23T07:53:17;18.05;;;8.38;;
42006;SDS011;27696;42.704;23.304;2022-07-23T07:55:42;12.73;;;7.13;;
42006;SDS011;27696;42.704;23.304;2022-07-23T07:58:07;11.40;;;7.15;;
42006;SDS011;27696;42.704;23.304;2022-07-23T08:00:33;9.27;;;7.28;;
42006;SDS011;27696;42.704;23.304;2022-07-23T08:02:58;14.63;;;8.93;;
42006;SDS011;27696;42.704;23.304;2022-07-23T08:05:25;14.65;;;7.28;;
42006;SDS011;27696;42.704;23.304;2022-07-23T08:07:51;19.27;;;7.90;;
42006;SDS011;27696;42.704;23.304;2022-07-23T08:10:17;11.10;;;6.57;;
42006;SDS011;27696;42.704;23.304;2022-07-23T08:12:47;11.27;;;7.45;;
42006;SDS011;27696;42.704;23.304;2022-07-23T08:15:15;14.45;;;7.07;;
42006;SDS011;27696;42.704;23.304;2022-07-23T08:17:42;14.43;;;7.47;;
42006;SDS011;27696;42.704;23.304;2022-07-23T08:20:09;12.20;;;7.15;;
42006;SDS011;27696;42.704;23.304;2022-07-23T08:25:22;14.43;;;6.82;;
42006;SDS011;27696;42.704;23.304;2022-07-23T08:27:48;13.45;;;6.72;;
42006;SDS011;27696;42.704;23.304;2022-07-23T08:30:14;12.70;;;7.18;;
42006;SDS011;27696;42.704;23.304;2022-07-23T08:32:53;11.65;;;6.82;;
42006;SDS011;27696;42.704;23.304;2022-07-23T08:35:28;13.13;;;7.10;;
42006;SDS011;27696;42.704;23.304;2022-07-23T08:37:56;12.73;;;6.90;;
42006;SDS011;27696;42.704;23.304;2022-07-23T08:40:22;17.02;;;7.78;;
42006;SDS011;27696;42.704;23.304;2022-07-23T08:42:50;12.98;;;7.10;;
42006;SDS011;27696;42.704;23.304;2022-07-23T08:45:17;11.75;;;7.15;;
42006;SDS011;27696;42.704;23.304;2022-07-23T08:47:45;16.80;;;8.80;;
42006;SDS011;27696;42.704;23.304;2022-07-23T08:50:16;13.68;;;7.70;;
42006;SDS011;27696;42.704;23.304;2022-07-23T08:52:41;18.08;;;7.53;;
42006;SDS011;27696;42.704;23.304;2022-07-23T08:55:07;15.68;;;7.20;;
42006;SDS011;27696;42.704;23.304;2022-07-23T08:57:33;14.60;;;7.20;;
42006;SDS011;27696;42.704;23.304;2022-07-23T08:59:59;15.27;;;7.68;;
42006;SDS011;27696;42.704;23.304;2022-07-23T09:02:25;13.35;;;7.47;;
42006;SDS011;27696;42.704;23.304;2022-07-23T09:04:50;12.80;;;7.10;;
42006;SDS011;27696;42.704;23.304;2022-07-23T09:07:16;13.07;;;6.75;;
42006;SDS011;27696;42.704;23.304;2022-07-23T09:09:41;19.27;;;7.95;;
42006;SDS011;27696;42.704;23.304;2022-07-23T09:12:08;12.93;;;7.60;;
42006;SDS011;27696;42.704;23.304;2022-07-23T09:14:36;14.15;;;7.13;;
42006;SDS011;27696;42.704;23.304;2022-07-23T09:17:12;16.60;;;7.22;;
42006;SDS011;27696;42.704;23.304;2022-07-23T09:19:40;16.60;;;7.10;;
42006;SDS011;27696;42.704;23.304;2022-07-23T09:22:19;11.75;;;7.32;;
42006;SDS011;27696;42.704;23.304;2022-07-23T09:27:51;11.95;;;6.65;;
42006;SDS011;27696;42.704;23.304;2022-07-23T09:30:20;10.07;;;6.28;;
42006;SDS011;27696;42.704;23.304;2022-07-23T09:35:53;17.35;;;6.88;;
42006;SDS011;27696;42.704;23.304;2022-07-23T09:38:21;11.70;;;6.32;;
42006;SDS011;27696;42.704;23.304;2022-07-23T09:41:05;12.30;;;7.65;;
42006;SDS011;27696;42.704;23.304;2022-07-23T09:43:35;11.27;;;6.82;;
42006;SDS011;27696;42.704;23.304;2022-07-23T09:48:44;18.55;;;6.90;;
42006;SDS011;27696;42.704;23.304;2022-07-23T09:51:11;14.57;;;6.65;;
42006;SDS011;27696;42.704;23.304;2022-07-23T09:53:38;13.65;;;8.48;;
42006;SDS011;27696;42.704;23.304;2022-07-23T09:56:03;12.25;;;6.32;;
42006;SDS011;27696;42.704;23.304;2022-07-23T09:58:30;9.95;;;6.07;;
42006;SDS011;27696;42.704;23.304;2022-07-23T10:00:56;11.27;;;6.68;;
42006;SDS011;27696;42.704;23.304;2022-07-23T10:03:23;11.85;;;6.63;;
42006;SDS011;27696;42.704;23.304;2022-07-23T10:05:49;12.93;;;5.47;;
42006;SDS011;27696;42.704;23.304;2022-07-23T10:08:18;8.75;;;5.35;;
42006;SDS011;27696;42.704;23.304;2022-07-23T10:10:45;8.48;;;5.60;;
42006;SDS011;27696;42.704;23.304;2022-07-23T10:13:12;8.45;;;5.50;;
42006;SDS011;27696;42.704;23.304;2022-07-23T10:15:57;11.98;;;5.32;;
42006;SDS011;27696;42.704;23.304;2022-07-23T10:18:23;9.50;;;5.00;;
42006;SDS011;27696;42.704;23.304;2022-07-23T10:20:48;11.00;;;5.20;;
42006;SDS011;27696;42.704;23.304;2022-07-23T10:23:27;10.02;;;5.10;;
42006;SDS011;27696;42.704;23.304;2022-07-23T10:36:46;7.45;;;4.90;;
42006;SDS011;27696;42.704;23.304;2022-07-23T10:39:22;13.45;;;5.38;;
42006;SDS011;27696;42.704;23.304;2022-07-23T10:41:51;13.32;;;6.30;;
42006;SDS011;27696;42.704;23.304;2022-07-23T10:44:20;14.30;;;5.90;;
42006;SDS011;27696;42.704;23.304;2022-07-23T10:49:28;13.43;;;5.70;;
42006;SDS011;27696;42.704;23.304;2022-07-23T10:54:38;13.52;;;5.35;;
42006;SDS011;27696;42.704;23.304;2022-07-23T10:57:05;7.85;;;4.97;;
42006;SDS011;27696;42.704;23.304;2022-07-23T10:59:53;11.95;;;5.00;;
42006;SDS011;27696;42.704;23.304;2022-07-23T11:02:34;12.77;;;4.70;;
42006;SDS011;27696;42.704;23.304;2022-07-23T11:05:03;15.65;;;4.47;;
42006;SDS011;27696;42.704;23.304;2022-07-23T11:07:29;13.93;;;5.07;;
42006;SDS011;27696;42.704;23.304;2022-07-23T11:09:54;14.00;;;5.03;;
42006;SDS011;27696;42.704;23.304;2022-07-23T11:17:24;9.50;;;4.78;;
42006;SDS011;27696;42.704;23.304;2022-07-23T11:23:16;10.82;;;4.80;;
42006;SDS011;27696;42.704;23.304;2022-07-23T11:27:55;14.55;;;4.80;;
42006;SDS011;27696;42.704;23.304;2022-07-23T11:35:38;12.23;;;4.35;;
42006;SDS011;27696;42.704;23.304;2022-07-23T11:38:21;13.95;;;5.63;;
42006;SDS011;27696;42.704;23.304;2022-07-23T11:40:51;16.23;;;5.00;;
42006;SDS011;27696;42.704;23.304;2022-07-23T11:43:19;12.63;;;4.90;;
42006;SDS011;27696;42.704;23.304;2022-07-23T11:45:49;11.15;;;5.80;;
42006;SDS011;27696;42.704;23.304;2022-07-23T11:48:18;13.73;;;5.10;;
42006;SDS011;27696;42.704;23.304;2022-07-23T11:51:01;15.80;;;5.05;;
42006;SDS011;27696;42.704;23.304;2022-07-23T11:53:28;11.38;;;4.57;;
42006;SDS011;27696;42.704;23.304;2022-07-23T11:58:30;11.85;;;4.80;;
42006;SDS011;27696;42.704;23.304;2022-07-23T12:00:56;16.23;;;4.72;;
42006;SDS011;27696;42.704;23.304;2022-07-23T12:03:22;13.63;;;5.40;;
42006;SDS011;27696;42.704;23.304;2022-07-23T12:05:47;20.48;;;4.82;;
42006;SDS011;27696;42.704;23.304;2022-07-23T12:08:13;21.20;;;4.90;;
42006;SDS011;27696;42.704;23.304;2022-07-23T12:10:43;16.52;;;5.57;;
42006;SDS011;27696;42.704;23.304;2022-07-23T12:13:10;11.55;;;4.97;;
42006;SDS011;27696;42.704;23.304;2022-07-23T12:18:09;13.35;;;4.57;;
42006;SDS011;27696;42.704;23.304;2022-07-23T12:20:37;15.65;;;4.80;;
42006;SDS011;27696;42.704;23.304;2022-07-23T12:23:08;14.40;;;4.72;;
42006;SDS011;27696;42.704;23.304;2022-07-23T12:25:36;12.25;;;4.75;;
42006;SDS011;27696;42.704;23.304;2022-07-23T12:28:08;15.82;;;4.85;;
42006;SDS011;27696;42.704;23.304;2022-07-23T12:33:12;17.08;;;4.65;;
42006;SDS011;27696;42.704;23.304;2022-07-23T12:35:44;19.20;;;6.63;;
42006;SDS011;27696;42.704;23.304;2022-07-23T12:38:12;20.42;;;6.60;;
42006;SDS011;27696;42.704;23.304;2022-07-23T12:40:44;18.17;;;5.18;;
42006;SDS011;27696;42.704;23.304;2022-07-23T12:43:27;15.95;;;5.18;;
42006;SDS011;27696;42.704;23.304;2022-07-23T12:51:18;12.82;;;5.25;;
42006;SDS011;27696;42.704;23.304;2022-07-23T12:53:52;18.02;;;5.43;;
42006;SDS011;27696;42.704;23.304;2022-07-23T12:56:20;13.35;;;4.82;;
42006;SDS011;27696;42.704;23.304;2022-07-23T13:03:56;14.70;;;5.00;;
42006;SDS011;27696;42.704;23.304;2022-07-23T13:09:10;13.45;;;5.60;;
42006;SDS011;27696;42.704;23.304;2022-07-23T13:11:38;12.68;;;5.40;;
42006;SDS011;27696;42.704;23.304;2022-07-23T13:14:04;14.35;;;5.00;;
42006;SDS011;27696;42.704;23.304;2022-07-23T13:16:31;14.57;;;5.60;;
42006;SDS011;27696;42.704;23.304;2022-07-23T13:18:58;13.45;;;5.93;;
42006;SDS011;27696;42.704;23.304;2022-07-23T13:21:25;17.65;;;6.15;;
42006;SDS011;27696;42.704;23.304;2022-07-23T13:23:50;14.75;;;4.65;;
42006;SDS011;27696;42.704;23.304;2022-07-23T13:26:16;14.50;;;5.40;;
42006;SDS011;27696;42.704;23.304;2022-07-23T13:28:42;17.10;;;5.32;;
42006;SDS011;27696;42.704;23.304;2022-07-23T13:31:07;16.58;;;5.15;;
42006;SDS011;27696;42.704;23.304;2022-07-23T13:33:33;18.27;;;5.50;;
42006;SDS011;27696;42.704;23.304;2022-07-23T13:35:59;13.75;;;5.25;;
42006;SDS011;27696;42.704;23.304;2022-07-23T13:38:24;24.20;;;5.55;;
42006;SDS011;27696;42.704;23.304;2022-07-23T13:40:50;14.07;;;5.20;;
42006;SDS011;27696;42.704;23.304;2022-07-23T13:43:18;18.13;;;5.72;;
42006;SDS011;27696;42.704;23.304;2022-07-23T13:45:46;16.00;;;4.95;;
42006;SDS011;27696;42.704;23.304;2022-07-23T13:48:12;15.00;;;5.68;;
42006;SDS011;27696;42.704;23.304;2022-07-23T13:50:39;17.40;;;5.25;;
42006;SDS011;27696;42.704;23.304;2022-07-23T13:53:07;9.50;;;5.07;;
42006;SDS011;27696;42.704;23.304;2022-07-23T13:55:35;15.30;;;5.18;;
42006;SDS011;27696;42.704;23.304;2022-07-23T13:58:00;11.25;;;4.75;;
42006;SDS011;27696;42.704;23.304;2022-07-23T14:00:26;15.65;;;5.20;;
42006;SDS011;27696;42.704;23.304;2022-07-23T14:02:53;11.85;;;4.75;;
42006;SDS011;27696;42.704;23.304;2022-07-23T14:05:19;10.23;;;4.60;;
42006;SDS011;27696;42.704;23.304;2022-07-23T14:07:45;12.60;;;4.38;;
42006;SDS011;27696;42.704;23.304;2022-07-23T14:10:12;13.05;;;4.38;;
42006;SDS011;27696;42.704;23.304;2022-07-23T14:12:38;11.70;;;4.28;;
42006;SDS011;27696;42.704;23.304;2022-07-23T14:15:05;18.02;;;4.70;;
42006;SDS011;27696;42.704;23.304;2022-07-23T14:17:31;15.88;;;4.07;;
42006;SDS011;27696;42.704;23.304;2022-07-23T14:19:58;11.43;;;4.53;;
42006;SDS011;27696;42.704;23.304;2022-07-23T14:22:24;13.00;;;4.40;;
42006;SDS011;27696;42.704;23.304;2022-07-23T14:24:49;12.00;;;4.38;;
42006;SDS011;27696;42.704;23.304;2022-07-23T14:27:15;13.02;;;4.85;;
42006;SDS011;27696;42.704;23.304;2022-07-23T14:29:41;18.55;;;5.10;;
42006;SDS011;27696;42.704;23.304;2022-07-23T14:32:07;11.93;;;5.22;;
42006;SDS011;27696;42.704;23.304;2022-07-23T14:34:32;16.90;;;5.30;;
42006;SDS011;27696;42.704;23.304;2022-07-23T14:36:58;17.13;;;4.53;;
42006;SDS011;27696;42.704;23.304;2022-07-23T14:39:24;10.88;;;5.05;;
42006;SDS011;27696;42.704;23.304;2022-07-23T14:41:50;11.88;;;4.85;;
42006;SDS011;27696;42.704;23.304;2022-07-23T14:44:16;14.35;;;4.78;;
42006;SDS011;27696;42.704;23.304;2022-07-23T14:46:42;15.50;;;4.38;;
42006;SDS011;27696;42.704;23.304;2022-07-23T14:49:07;10.70;;;4.53;;
42006;SDS011;27696;42.704;23.304;2022-07-23T14:51:33;14.32;;;4.53;;
42006;SDS011;27696;42.704;23.304;2022-07-23T14:53:58;12.23;;;4.78;;
42006;SDS011;27696;42.704;23.304;2022-07-23T14:56:24;10.85;;;5.15;;
42006;SDS011;27696;42.704;23.304;2022-07-23T14:58:49;10.07;;;4.47;;
42006;SDS011;27696;42.704;23.304;2022-07-23T15:01:15;11.60;;;5.03;;
42006;SDS011;27696;42.704;23.304;2022-07-23T15:03:40;10.35;;;4.50;;
42006;SDS011;27696;42.704;23.304;2022-07-23T15:06:06;15.13;;;4.68;;
42006;SDS011;27696;42.704;23.304;2022-07-23T15:08:32;12.23;;;4.47;;
42006;SDS011;27696;42.704;23.304;2022-07-23T15:10:57;12.48;;;4.78;;
42006;SDS011;27696;42.704;23.304;2022-07-23T15:13:23;13.93;;;4.30;;
42006;SDS011;27696;42.704;23.304;2022-07-23T15:15:48;10.13;;;4.22;;
42006;SDS011;27696;42.704;23.304;2022-07-23T15:18:14;14.13;;;4.38;;
42006;SDS011;27696;42.704;23.304;2022-07-23T15:20:40;11.77;;;4.20;;
42006;SDS011;27696;42.704;23.304;2022-07-23T15:23:05;11.23;;;4.78;;